Lumberton Municipal Airport Lumberton US
ICAO: KLBT
IATA: LBT
Category: Medium
Scheduled Services: No

Elevation: 126 ft
TransAlt. 18000 ft.

Airport Communications:
FAYETTEVILLE APP/DEP:133
ASOS:134.775
CTAF/UNICOM:122.8

KLBT Zoom In..

If you have problems with the map follow the link
https://www.worldairports.se/pages/airport.php?
ICAO=KLBT

Runways:

(A) RW 05 length 5502 ft width 150 ft
ILS 108.95 / hdg 53

(B) RW 13 length 5003 ft width 150 ft
---- / hdg 133

(C) RW 23 length 5502 ft width 150 ft
---- / hdg 233

(D) RW 31 length 5003 ft width 150 ft
---- / hdg 313

Location; KLBT
Day. 29 / Time. 13.54 Zulu
* Altimeter: 29.95
* Temperature: 08° c. 46.4°f.
* Wind from: 190° Speed 06 kn.
Dewpoint: 04° c.
Visibility: 10 Statute Miles.
Clouds: Clear (automated report).

KLBT 291354Z AUTO 19006KT 10SM CLR 08/04 A2995 RMK AO2 SLP143 T00830039


Wind From 190°
Speed 06 kn.

 
 
jpsmedia.com for Web Design worldairports.se 2019   terms of use